Time;durP1;ratioP1;P1;durP2;ratioP2;P2;SDS_P1;SDS_P2;PMS_P1;PMS_P2;Temp;Humidity;BMP_temperature;BMP_pressure;BME280_temperature;BME280_humidity;BME280_pressure;Samples;Min_cycle;Max_cycle;Signal;HPM_P1;HPM_P2
2022/07/27 00:01:02;;;;;;;3.55;1.50;;;22.50;73.70;;;;;;5073761;28;20029;-89
2022/07/27 00:03:28;;;;;;;2.13;1.20;;;22.40;73.70;;;;;;5073787;28;20465;-87
2022/07/27 00:05:53;;;;;;;3.50;1.17;;;22.40;73.90;;;;;;5055516;28;20031;-87
2022/07/27 00:08:19;;;;;;;3.00;1.38;;;22.40;74.00;;;;;;5056234;28;20465;-87
2022/07/27 00:10:45;;;;;;;2.40;1.23;;;22.30;74.10;;;;;;5055771;28;20048;-87
2022/07/27 00:13:11;;;;;;;3.00;1.23;;;22.30;74.40;;;;;;5074060;28;20020;-87
2022/07/27 00:15:37;;;;;;;3.80;1.17;;;22.30;74.50;;;;;;5073845;28;20017;-86
2022/07/27 00:18:02;;;;;;;2.55;1.10;;;22.30;74.60;;;;;;5055852;28;20771;-86
2022/07/27 00:20:30;;;;;;;2.22;1.30;;;22.30;74.90;;;;;;5056775;28;20123;-86
2022/07/27 00:22:57;;;;;;;2.13;1.30;;;22.30;74.90;;;;;;5055678;28;20029;-86
2022/07/27 00:25:23;;;;;;;2.13;1.23;;;22.30;75.00;;;;;;5069501;28;20020;-87
2022/07/27 00:27:49;;;;;;;1.80;1.17;;;22.30;75.30;;;;;;5055669;28;20048;-86
2022/07/27 00:30:15;;;;;;;1.95;1.27;;;22.30;75.40;;;;;;5069389;28;20024;-85
2022/07/27 00:32:41;;;;;;;2.83;1.20;;;22.30;75.40;;;;;;5063580;28;20480;-85
2022/07/27 00:35:08;;;;;;;3.22;1.13;;;22.30;75.60;;;;;;5071128;28;20413;-85
2022/07/27 00:37:34;;;;;;;1.80;1.40;;;22.30;75.80;;;;;;5061278;28;20029;-85
2022/07/27 00:39:59;;;;;;;2.08;1.20;;;22.30;75.90;;;;;;5073755;28;20094;-85
2022/07/27 00:42:26;;;;;;;2.47;1.20;;;22.20;76.00;;;;;;5074573;28;20453;-85
2022/07/27 00:44:53;;;;;;;2.00;1.27;;;22.20;76.20;;;;;;5073633;28;20031;-87
2022/07/27 00:47:23;;;;;;;3.92;1.20;;;22.20;76.20;;;;;;5072412;28;20523;-87
2022/07/27 00:49:48;;;;;;;2.28;1.60;;;22.20;76.30;;;;;;5072017;28;20028;-87
2022/07/27 00:52:15;;;;;;;2.85;1.45;;;22.20;76.40;;;;;;5072154;28;20032;-86
2022/07/27 00:54:42;;;;;;;1.17;1.08;;;22.20;76.60;;;;;;5072433;28;20111;-86
2022/07/27 00:57:10;;;;;;;2.15;1.08;;;22.20;76.70;;;;;;5072485;28;20036;-86
2022/07/27 00:59:36;;;;;;;1.90;1.10;;;22.20;76.80;;;;;;5073066;28;20466;-86
2022/07/27 01:02:02;;;;;;;2.05;1.30;;;22.20;77.00;;;;;;5072058;28;20059;-87
2022/07/27 01:04:28;;;;;;;2.85;1.00;;;22.20;77.30;;;;;;5073707;28;20032;-87
2022/07/27 01:06:54;;;;;;;4.07;1.30;;;22.10;77.30;;;;;;5072046;28;20036;-87
2022/07/27 01:12:07;;;;;;;1.20;0.90;;;22.10;77.50;;;;;;5076763;28;20031;-88
2022/07/27 01:14:33;;;;;;;1.42;1.30;;;22.10;77.60;;;;;;5076268;28;20029;-87
2022/07/27 01:16:59;;;;;;;3.25;1.13;;;22.10;78.20;;;;;;5075396;28;20401;-87
2022/07/27 01:19:25;;;;;;;2.35;0.98;;;22.10;77.80;;;;;;5076996;28;20052;-87
2022/07/27 01:21:51;;;;;;;2.70;1.05;;;22.10;77.80;;;;;;5076377;28;20024;-87
2022/07/27 01:24:16;;;;;;;2.15;1.10;;;22.00;78.00;;;;;;5075872;28;20032;-87
2022/07/27 01:26:42;;;;;;;1.70;0.90;;;21.90;78.30;;;;;;5076857;28;20149;-87
2022/07/27 01:29:08;;;;;;;2.58;1.30;;;21.90;78.20;;;;;;5078274;28;20028;-87
2022/07/27 01:31:33;;;;;;;3.40;1.20;;;21.90;78.20;;;;;;5079002;28;20074;-87
2022/07/27 01:33:59;;;;;;;2.53;1.02;;;21.80;78.40;;;;;;5096466;28;20028;-87
2022/07/27 01:36:25;;;;;;;2.15;0.90;;;21.80;78.50;;;;;;5078482;28;20381;-86
2022/07/27 01:38:50;;;;;;;3.10;1.00;;;21.80;78.60;;;;;;5078491;28;20028;-87
2022/07/27 01:41:16;;;;;;;2.00;1.10;;;21.80;78.80;;;;;;5078826;28;20028;-86
2022/07/27 01:43:41;;;;;;;2.17;0.93;;;21.80;78.70;;;;;;5078732;28;20024;-86
2022/07/27 01:46:07;;;;;;;1.40;0.93;;;21.70;78.70;;;;;;5078371;28;20679;-87
2022/07/27 01:48:32;;;;;;;1.58;1.10;;;21.70;79.00;;;;;;5078401;28;20034;-87
2022/07/27 01:50:58;;;;;;;2.22;1.00;;;21.70;78.90;;;;;;5096112;28;20508;-86
2022/07/27 01:53:24;;;;;;;2.08;1.00;;;21.70;78.90;;;;;;5078852;28;20062;-86
2022/07/27 01:55:50;;;;;;;1.05;0.95;;;21.60;79.10;;;;;;5095842;28;20030;-87
2022/07/27 01:58:16;;;;;;;1.90;1.00;;;21.60;79.00;;;;;;5078687;28;20031;-86
2022/07/27 02:00:42;;;;;;;0.98;0.90;;;21.70;78.90;;;;;;5078268;28;20028;-87
2022/07/27 02:03:09;;;;;;;2.40;0.90;;;21.60;78.70;;;;;;5077811;28;20020;-87
2022/07/27 02:05:36;;;;;;;1.95;1.05;;;21.70;78.70;;;;;;5077999;28;20050;-87
2022/07/27 02:08:06;;;;;;;1.30;0.93;;;21.60;78.30;;;;;;5095609;28;20024;-87
2022/07/27 02:10:33;;;;;;;3.33;1.10;;;21.70;78.30;;;;;;5078327;28;20020;-87
2022/07/27 02:12:59;;;;;;;0.73;0.73;;;21.70;78.20;;;;;;5077853;28;20035;-87
2022/07/27 02:15:27;;;;;;;1.50;1.05;;;21.60;78.10;;;;;;5078581;28;20020;-87
2022/07/27 02:17:53;;;;;;;1.30;0.98;;;21.60;78.30;;;;;;5077297;28;20055;-86
2022/07/27 02:20:21;;;;;;;3.85;1.00;;;21.50;78.30;;;;;;5077610;28;20094;-86
2022/07/27 02:22:47;;;;;;;3.47;0.98;;;21.50;78.40;;;;;;5077596;28;20050;-84
2022/07/27 02:25:15;;;;;;;1.08;0.90;;;21.50;78.60;;;;;;5077684;28;20461;-86
2022/07/27 02:27:42;;;;;;;1.50;1.05;;;21.40;78.80;;;;;;5074278;28;20068;-86
2022/07/27 02:30:09;;;;;;;1.95;0.82;;;21.40;79.00;;;;;;5074015;28;20032;-87
2022/07/27 02:32:35;;;;;;;1.48;1.00;;;21.40;79.10;;;;;;5074920;28;20024;-86
2022/07/27 02:35:01;;;;;;;2.90;0.90;;;21.40;79.20;;;;;;5073885;28;20377;-86
2022/07/27 02:37:26;;;;;;;1.77;1.15;;;21.40;79.20;;;;;;5074648;28;20028;-85
2022/07/27 02:39:52;;;;;;;1.90;0.95;;;21.40;79.20;;;;;;5074056;28;20413;-87
2022/07/27 02:42:18;;;;;;;0.88;0.70;;;21.40;79.30;;;;;;5074393;28;20035;-86
2022/07/27 02:44:44;;;;;;;0.88;0.88;;;21.30;79.50;;;;;;5075122;28;20161;-86
2022/07/27 02:47:10;;;;;;;3.22;0.80;;;21.30;79.60;;;;;;5073537;28;20300;-86
2022/07/27 02:49:36;;;;;;;2.35;1.00;;;21.30;79.60;;;;;;5074188;28;20035;-86
2022/07/27 02:52:03;;;;;;;2.45;1.00;;;21.30;79.70;;;;;;5073810;28;20469;-86
2022/07/27 02:54:31;;;;;;;2.80;1.05;;;21.30;79.80;;;;;;5075167;28;20033;-85
2022/07/27 02:56:59;;;;;;;1.55;1.00;;;21.40;79.80;;;;;;5073693;28;20028;-86
2022/07/27 02:59:25;;;;;;;2.42;1.15;;;21.40;79.90;;;;;;5073842;28;20029;-86
2022/07/27 03:01:51;;;;;;;1.48;1.05;;;21.40;80.00;;;;;;5073688;28;20064;-87
2022/07/27 03:04:17;;;;;;;2.17;1.00;;;21.30;80.00;;;;;;5073629;28;20055;-86
2022/07/27 03:06:43;;;;;;;0.70;0.70;;;21.40;80.10;;;;;;5073792;28;20090;-86
2022/07/27 03:09:09;;;;;;;1.88;0.90;;;21.30;80.10;;;;;;5074025;28;20355;-86
2022/07/27 03:11:35;;;;;;;1.63;1.02;;;21.40;80.10;;;;;;5073760;28;20051;-86
2022/07/27 03:14:01;;;;;;;1.85;0.93;;;21.30;80.30;;;;;;5073227;28;20381;-86
2022/07/27 03:16:27;;;;;;;1.73;1.10;;;21.30;80.30;;;;;;5074073;28;20048;-84
2022/07/27 03:18:52;;;;;;;1.08;1.00;;;21.10;80.90;;;;;;5073405;28;20041;-87
2022/07/27 03:21:18;;;;;;;2.30;1.15;;;21.00;81.30;;;;;;5073804;28;20038;-86
2022/07/27 03:23:44;;;;;;;1.80;0.90;;;21.00;81.20;;;;;;5074564;28;20024;-86
2022/07/27 03:26:09;;;;;;;1.00;0.90;;;21.00;81.30;;;;;;5072998;28;20039;-87
2022/07/27 03:28:35;;;;;;;2.17;1.00;;;20.90;81.50;;;;;;5073345;28;20048;-86
2022/07/27 03:31:01;;;;;;;1.40;0.85;;;21.00;81.40;;;;;;5072979;28;20035;-86
2022/07/27 03:33:26;;;;;;;1.77;1.10;;;20.90;81.50;;;;;;5073398;28;20112;-86
2022/07/27 03:35:52;;;;;;;1.15;0.80;;;20.90;81.80;;;;;;5072972;28;20028;-86
2022/07/27 03:38:18;;;;;;;3.25;1.20;;;20.80;82.10;;;;;;5073493;28;20029;-86
2022/07/27 03:40:44;;;;;;;1.30;1.00;;;20.80;82.20;;;;;;5073386;28;20124;-86
2022/07/27 03:43:10;;;;;;;0.88;0.85;;;20.70;82.00;;;;;;5072794;28;20052;-86
2022/07/27 03:45:36;;;;;;;2.67;1.10;;;20.80;82.10;;;;;;5073085;28;20027;-86
2022/07/27 03:48:02;;;;;;;1.45;1.05;;;20.80;82.00;;;;;;5065096;28;20460;-86
2022/07/27 03:50:28;;;;;;;1.92;1.00;;;20.90;81.70;;;;;;5051097;28;20064;-86
2022/07/27 03:52:53;;;;;;;1.55;1.40;;;20.90;81.50;;;;;;5053953;28;20117;-87
2022/07/27 03:55:19;;;;;;;3.15;0.80;;;21.00;82.20;;;;;;5036400;28;20032;-85
2022/07/27 03:57:45;;;;;;;2.38;0.90;;;21.00;81.40;;;;;;5050905;28;20028;-86
2022/07/27 04:00:12;;;;;;;2.55;1.00;;;21.00;81.40;;;;;;5054019;28;20036;-86
2022/07/27 04:02:39;;;;;;;2.17;1.08;;;21.00;81.40;;;;;;5073911;28;20016;-86
2022/07/27 04:05:06;;;;;;;1.75;0.70;;;21.10;81.10;;;;;;5055766;28;20121;-85
2022/07/27 04:07:32;;;;;;;3.65;1.13;;;21.10;81.20;;;;;;5056353;28;20028;-86
2022/07/27 04:09:57;;;;;;;2.65;1.40;;;21.10;81.20;;;;;;5050430;28;20362;-86
2022/07/27 04:12:23;;;;;;;1.25;0.93;;;21.10;81.10;;;;;;5055502;28;20588;-86
2022/07/27 04:14:49;;;;;;;1.67;0.90;;;21.10;81.40;;;;;;5055032;28;20492;-85
2022/07/27 04:17:14;;;;;;;1.20;1.10;;;21.10;81.50;;;;;;5055619;28;20024;-86
2022/07/27 04:19:40;;;;;;;1.10;1.00;;;21.20;81.40;;;;;;5051539;28;20478;-86
2022/07/27 04:22:06;;;;;;;2.20;0.90;;;21.20;81.40;;;;;;5035466;28;20029;-86
2022/07/27 04:24:31;;;;;;;1.42;0.93;;;21.20;81.40;;;;;;5036073;28;20450;-86
2022/07/27 04:26:57;;;;;;;2.33;1.15;;;21.10;81.40;;;;;;5035324;28;20137;-87
2022/07/27 04:29:22;;;;;;;1.38;0.90;;;21.10;81.60;;;;;;5057318;28;20031;-86
2022/07/27 04:31:48;;;;;;;2.17;0.95;;;21.10;81.40;;;;;;5055884;28;20021;-87
2022/07/27 04:34:14;;;;;;;1.25;0.98;;;21.10;81.40;;;;;;5055300;28;20171;-86
2022/07/27 04:36:39;;;;;;;1.60;0.80;;;21.10;81.50;;;;;;5056261;28;20027;-86
2022/07/27 04:39:05;;;;;;;0.95;0.90;;;21.10;81.60;;;;;;5055389;28;20035;-84
2022/07/27 04:41:31;;;;;;;1.95;1.00;;;21.10;81.80;;;;;;5055719;28;20073;-85
2022/07/27 04:43:57;;;;;;;3.42;1.98;;;21.10;81.80;;;;;;5045029;28;20070;-86
2022/07/27 04:46:23;;;;;;;2.47;1.52;;;21.10;81.80;;;;;;5055497;28;20029;-85
2022/07/27 04:48:49;;;;;;;2.28;0.98;;;21.10;81.70;;;;;;5073803;28;20037;-85
2022/07/27 04:51:15;;;;;;;1.48;1.10;;;21.20;81.80;;;;;;5059118;28;20488;-85
2022/07/27 04:53:41;;;;;;;2.45;0.80;;;21.20;81.90;;;;;;5077083;28;20465;-85
2022/07/27 04:56:08;;;;;;;2.03;0.93;;;21.20;81.90;;;;;;5054312;28;20036;-82
2022/07/27 04:58:34;;;;;;;1.35;0.77;;;21.20;82.10;;;;;;5077185;28;20056;-85
2022/07/27 05:00:59;;;;;;;1.25;0.80;;;21.20;82.10;;;;;;5058699;28;20060;-85
2022/07/27 05:03:25;;;;;;;1.83;0.90;;;21.30;82.20;;;;;;5059452;28;20050;-83
2022/07/27 05:05:52;;;;;;;1.45;0.77;;;21.30;82.10;;;;;;5059460;28;20020;-85
2022/07/27 05:08:18;;;;;;;3.13;0.90;;;21.30;82.10;;;;;;5076555;28;20062;-85
2022/07/27 05:10:44;;;;;;;1.48;1.02;;;21.30;82.30;;;;;;5059088;28;20044;-85
2022/07/27 05:13:09;;;;;;;1.17;0.88;;;21.20;82.40;;;;;;5058796;28;20528;-84
2022/07/27 05:15:36;;;;;;;1.25;0.80;;;21.30;82.60;;;;;;5059237;28;20361;-86
2022/07/27 05:18:01;;;;;;;3.67;0.90;;;21.30;82.60;;;;;;5076724;28;20466;-86
2022/07/27 05:20:27;;;;;;;3.80;0.90;;;21.30;82.80;;;;;;5058973;28;20040;-86
2022/07/27 05:22:53;;;;;;;1.17;0.70;;;21.30;82.70;;;;;;5076620;28;20071;-86
2022/07/27 05:25:20;;;;;;;2.45;0.60;;;21.30;82.50;;;;;;5058458;28;20489;-86
2022/07/27 05:27:46;;;;;;;1.58;0.70;;;21.30;82.50;;;;;;5058502;28;20060;-85
2022/07/27 05:30:12;;;;;;;1.48;0.65;;;21.30;82.40;;;;;;5058197;28;20020;-85
2022/07/27 05:32:38;;;;;;;1.90;0.70;;;21.30;82.40;;;;;;5058830;28;20024;-85
2022/07/27 05:35:04;;;;;;;1.73;0.70;;;21.30;82.50;;;;;;5058058;28;20074;-86
2022/07/27 05:37:30;;;;;;;1.85;0.60;;;21.30;82.60;;;;;;5072146;28;20052;-86
2022/07/27 05:39:55;;;;;;;4.70;0.63;;;21.20;82.70;;;;;;5058518;28;20033;-86
2022/07/27 05:42:21;;;;;;;1.45;0.60;;;21.20;82.70;;;;;;5057840;28;20113;-86
2022/07/27 05:44:46;;;;;;;1.85;0.60;;;21.10;82.80;;;;;;5067512;28;20423;-86
2022/07/27 05:47:12;;;;;;;3.30;0.60;;;21.10;82.70;;;;;;5057648;28;20036;-86
2022/07/27 05:49:38;;;;;;;2.70;0.82;;;21.00;83.20;;;;;;5043368;28;20052;-86
2022/07/27 05:52:04;;;;;;;2.17;0.85;;;21.00;83.20;;;;;;5057460;28;20025;-86
2022/07/27 05:54:29;;;;;;;3.90;0.80;;;21.00;83.10;;;;;;5057902;28;20032;-86
2022/07/27 05:56:55;;;;;;;3.22;0.73;;;21.00;83.20;;;;;;5057081;28;20074;-85
2022/07/27 05:59:20;;;;;;;1.52;0.60;;;21.00;83.20;;;;;;5075434;28;20082;-86
2022/07/27 06:01:46;;;;;;;2.72;0.60;;;21.00;83.30;;;;;;5058315;28;20028;-86
2022/07/27 06:04:12;;;;;;;0.50;0.50;;;21.00;83.40;;;;;;5057815;28;20027;-86
2022/07/27 06:09:24;;;;;;;1.88;0.52;;;21.00;83.30;;;;;;5074750;28;20125;-86
2022/07/27 06:11:50;;;;;;;1.20;0.60;;;21.00;83.50;;;;;;5058118;28;20024;-86
2022/07/27 06:14:15;;;;;;;3.25;0.50;;;21.00;83.40;;;;;;5057760;28;20023;-86
2022/07/27 06:16:41;;;;;;;2.95;0.73;;;21.10;83.50;;;;;;5057101;28;20116;-86
2022/07/27 06:19:07;;;;;;;1.00;0.65;;;21.10;83.30;;;;;;5034803;28;20383;-87
2022/07/27 06:21:32;;;;;;;1.52;0.50;;;21.10;83.20;;;;;;5036724;28;20218;-86
2022/07/27 06:23:58;;;;;;;1.98;0.68;;;21.20;83.20;;;;;;5034545;28;20064;-88
2022/07/27 06:26:24;;;;;;;1.77;0.57;;;21.20;83.20;;;;;;5034492;28;20036;-87
2022/07/27 06:28:50;;;;;;;2.17;0.68;;;21.20;83.00;;;;;;5035776;28;20053;-86
2022/07/27 06:31:16;;;;;;;1.30;0.60;;;21.30;83.10;;;;;;5020058;28;20466;-87
2022/07/27 06:33:42;;;;;;;0.85;0.40;;;21.40;82.60;;;;;;5037854;28;20111;-87
2022/07/27 06:36:07;;;;;;;1.15;0.45;;;21.40;82.50;;;;;;5037710;28;20025;-87
2022/07/27 06:38:33;;;;;;;3.22;0.65;;;21.40;82.40;;;;;;5055304;28;20033;-86
2022/07/27 06:41:00;;;;;;;1.92;0.60;;;21.40;82.40;;;;;;5037685;28;20040;-87
2022/07/27 06:43:29;;;;;;;2.38;0.50;;;21.40;82.40;;;;;;5037353;28;20029;-86
2022/07/27 06:45:54;;;;;;;4.28;0.50;;;21.40;82.60;;;;;;5047626;28;20425;-86
2022/07/27 06:48:21;;;;;;;1.67;0.35;;;21.40;82.80;;;;;;5036812;28;20029;-86
2022/07/27 06:50:47;;;;;;;1.05;0.35;;;21.40;82.80;;;;;;5037581;28;20033;-86
2022/07/27 06:53:13;;;;;;;1.30;0.50;;;21.40;82.90;;;;;;5036784;28;20025;-86
2022/07/27 06:55:38;;;;;;;1.40;0.50;;;21.40;83.30;;;;;;5037216;28;20020;-86
2022/07/27 06:58:04;;;;;;;1.38;0.50;;;21.50;82.30;;;;;;5036267;28;20115;-87
2022/07/27 07:00:30;;;;;;;1.77;0.40;;;21.60;82.00;;;;;;5074764;28;20373;-86
2022/07/27 07:03:01;;;;;;;3.60;0.70;;;21.60;81.50;;;;;;5040393;28;20074;-87
2022/07/27 07:05:28;;;;;;;3.63;0.60;;;21.70;81.60;;;;;;5021177;28;20055;-87
2022/07/27 07:07:54;;;;;;;3.70;0.60;;;21.80;81.60;;;;;;5053339;28;20029;-86
2022/07/27 07:10:21;;;;;;;0.98;0.65;;;21.90;81.20;;;;;;5036157;28;20021;-87
2022/07/27 07:12:47;;;;;;;2.45;0.57;;;21.90;81.00;;;;;;5036862;28;20051;-87
2022/07/27 07:15:13;;;;;;;1.15;0.50;;;22.00;80.80;;;;;;5036571;28;20029;-87
2022/07/27 07:17:39;;;;;;;1.58;0.50;;;22.00;80.70;;;;;;5033441;28;20036;-87
2022/07/27 07:20:06;;;;;;;2.13;0.40;;;22.00;80.60;;;;;;5033159;28;20038;-87
2022/07/27 07:22:33;;;;;;;0.75;0.30;;;22.00;80.70;;;;;;5034235;28;20029;-87
2022/07/27 07:24:59;;;;;;;0.50;0.50;;;22.10;80.80;;;;;;5034301;28;20025;-87
2022/07/27 07:27:26;;;;;;;2.60;0.60;;;22.10;80.50;;;;;;5040024;28;20041;-87
2022/07/27 07:29:52;;;;;;;1.85;0.68;;;22.10;80.60;;;;;;5053117;28;20028;-86
2022/07/27 07:32:21;;;;;;;1.27;0.40;;;22.20;80.80;;;;;;5053423;28;20025;-87
2022/07/27 07:34:48;;;;;;;1.40;0.88;;;22.20;80.60;;;;;;5053054;28;20350;-87
2022/07/27 07:37:14;;;;;;;1.88;0.60;;;22.20;80.30;;;;;;5053210;28;20386;-87
2022/07/27 07:39:40;;;;;;;3.00;0.60;;;22.30;80.10;;;;;;5050118;28;20037;-87
2022/07/27 07:42:06;;;;;;;2.38;0.60;;;22.40;80.00;;;;;;5052140;28;20027;-86
2022/07/27 07:44:32;;;;;;;3.17;0.80;;;22.40;79.70;;;;;;5052270;28;20048;-87
2022/07/27 07:46:58;;;;;;;0.85;0.57;;;22.40;79.40;;;;;;5051777;28;20127;-87
2022/07/27 07:49:24;;;;;;;0.70;0.50;;;22.40;79.20;;;;;;5051698;28;20060;-87
2022/07/27 07:51:49;;;;;;;2.65;0.50;;;22.40;79.60;;;;;;5052588;28;20500;-86
2022/07/27 07:54:15;;;;;;;3.40;0.55;;;22.30;80.10;;;;;;5052235;28;20021;-86
2022/07/27 07:56:41;;;;;;;2.80;0.60;;;22.20;80.60;;;;;;5053744;28;20458;-86
2022/07/27 07:59:06;;;;;;;0.80;0.80;;;22.10;81.20;;;;;;5052106;28;20390;-86
2022/07/27 08:01:32;;;;;;;2.75;0.60;;;22.00;80.90;;;;;;5052142;28;20021;-87
2022/07/27 08:03:57;;;;;;;1.80;0.40;;;22.00;81.70;;;;;;5052405;28;20021;-86
2022/07/27 08:06:23;;;;;;;1.77;0.63;;;21.90;81.90;;;;;;5051769;28;20029;-86
2022/07/27 08:08:49;;;;;;;1.50;0.70;;;21.90;82.30;;;;;;5053463;28;20087;-87
2022/07/27 08:11:14;;;;;;;1.40;0.50;;;21.80;82.30;;;;;;5050980;28;20032;-87
2022/07/27 08:13:40;;;;;;;5.65;0.75;;;21.90;82.30;;;;;;5053034;28;20025;-86
2022/07/27 08:16:06;;;;;;;1.90;0.63;;;21.80;82.10;;;;;;5041434;28;20028;-87
2022/07/27 08:18:31;;;;;;;0.95;0.50;;;21.80;82.10;;;;;;5051897;28;20029;-86
2022/07/27 08:20:57;;;;;;;2.60;1.08;;;21.80;82.20;;;;;;5056380;28;20501;-86
2022/07/27 08:23:23;;;;;;;1.58;0.90;;;21.90;82.00;;;;;;5057340;28;20450;-87
2022/07/27 08:25:49;;;;;;;1.63;0.70;;;21.90;82.10;;;;;;5057361;28;20482;-84
2022/07/27 08:28:14;;;;;;;1.95;0.63;;;22.00;82.10;;;;;;5071037;28;20056;-80
2022/07/27 08:30:40;;;;;;;2.00;0.50;;;22.00;82.10;;;;;;5055730;28;20428;-83
2022/07/27 08:33:06;;;;;;;1.80;0.70;;;22.10;82.10;;;;;;5058753;28;20115;-83
2022/07/27 08:35:33;;;;;;;1.80;0.65;;;22.10;81.90;;;;;;5059450;28;20183;-83
2022/07/27 08:38:01;;;;;;;3.38;0.80;;;22.10;82.10;;;;;;5059440;28;20039;-83
2022/07/27 08:40:27;;;;;;;2.35;0.80;;;22.20;82.00;;;;;;5059512;28;20036;-82
2022/07/27 08:42:52;;;;;;;2.08;1.02;;;22.10;82.00;;;;;;5076938;28;20020;-82
2022/07/27 08:45:19;;;;;;;2.97;0.90;;;22.10;82.00;;;;;;5076328;28;20031;-84
2022/07/27 08:47:46;;;;;;;2.72;0.70;;;22.20;82.40;;;;;;5076834;28;20131;-79
2022/07/27 08:50:22;;;;;;;2.20;0.70;;;22.10;82.40;;;;;;5048173;28;20051;-81
2022/07/27 08:53:04;;;;;;;1.70;0.85;;;22.10;82.30;;;;;;5066818;28;20056;-86
2022/07/27 08:55:50;;;;;;;7.68;4.93;;;22.10;82.00;;;;;;5056219;28;20103;-83
2022/07/27 08:58:16;;;;;;;2.10;0.90;;;22.20;82.40;;;;;;5074320;28;20042;-81
2022/07/27 09:00:50;;;;;;;3.10;0.88;;;22.20;81.90;;;;;;5055219;28;20425;-81
2022/07/27 09:03:18;;;;;;;4.25;0.80;;;22.30;81.60;;;;;;5074774;28;20017;-80
2022/07/27 09:05:48;;;;;;;3.38;0.60;;;22.30;81.40;;;;;;5054842;28;20450;-80
2022/07/27 09:08:16;;;;;;;1.40;0.80;;;22.30;81.40;;;;;;5054272;28;20033;-80
2022/07/27 09:10:43;;;;;;;0.65;0.47;;;22.20;81.30;;;;;;5054714;28;20025;-81
2022/07/27 09:13:19;;;;;;;1.38;0.60;;;22.30;81.40;;;;;;5057157;28;20024;-81
2022/07/27 09:16:06;;;;;;;1.02;0.85;;;22.30;81.20;;;;;;5054600;28;20043;-81
2022/07/27 09:18:32;;;;;;;2.58;0.88;;;22.30;80.50;;;;;;5070610;28;20027;-83
2022/07/27 09:21:09;;;;;;;4.03;0.60;;;22.30;80.60;;;;;;5057881;28;20043;-83
2022/07/27 09:23:35;;;;;;;1.40;0.63;;;22.30;80.40;;;;;;5058137;28;20356;-90
2022/07/27 09:26:22;;;;;;;3.25;0.70;;;22.40;80.60;;;;;;5054607;28;20017;-84
2022/07/27 09:28:53;;;;;;;1.63;0.68;;;22.50;80.50;;;;;;5075146;28;20056;-80
2022/07/27 09:31:19;;;;;;;0.73;0.50;;;22.50;79.80;;;;;;5057266;28;20013;-81
2022/07/27 09:33:50;;;;;;;3.13;0.80;;;22.40;79.90;;;;;;5072718;28;20032;-81
2022/07/27 09:36:19;;;;;;;1.00;0.50;;;22.50;80.00;;;;;;5075686;28;20020;-83
2022/07/27 09:39:04;;;;;;;1.35;0.40;;;22.50;79.90;;;;;;5060437;28;20021;-83
2022/07/27 09:41:42;;;;;;;2.13;0.80;;;22.50;79.20;;;;;;5042406;28;20059;-82
2022/07/27 09:44:08;;;;;;;2.55;0.60;;;22.50;79.00;;;;;;5075037;28;20059;-80
2022/07/27 09:46:38;;;;;;;1.42;0.50;;;22.50;78.80;;;;;;5057702;28;20062;-81
2022/07/27 09:49:04;;;;;;;2.05;0.60;;;22.60;78.50;;;;;;5060878;28;20020;-76
2022/07/27 09:51:31;;;;;;;1.58;0.52;;;22.60;78.60;;;;;;5055243;28;20055;-77
2022/07/27 09:53:58;;;;;;;1.38;0.77;;;22.60;78.00;;;;;;5057236;28;20020;-77
2022/07/27 09:56:29;;;;;;;3.10;0.70;;;22.70;77.70;;;;;;5075004;28;20458;-79
2022/07/27 09:58:57;;;;;;;1.55;0.70;;;22.70;78.20;;;;;;5075509;28;20028;-81
2022/07/27 10:01:25;;;;;;;2.30;0.80;;;22.80;77.80;;;;;;5056976;28;20038;-82
2022/07/27 10:03:54;;;;;;;1.50;0.60;;;22.80;76.90;;;;;;5075350;28;20549;-81
2022/07/27 10:06:21;;;;;;;1.42;0.50;;;22.80;77.00;;;;;;5057328;28;20782;-80
2022/07/27 10:08:48;;;;;;;1.95;0.60;;;22.90;76.80;;;;;;5075344;28;20048;-79
2022/07/27 10:11:15;;;;;;;4.65;0.70;;;23.00;76.00;;;;;;5057047;28;20541;-79
2022/07/27 10:13:42;;;;;;;2.78;0.80;;;23.00;76.30;;;;;;5057327;28;20036;-79
2022/07/27 10:16:18;;;;;;;2.38;0.70;;;23.10;75.70;;;;;;5074800;28;20029;-79
2022/07/27 10:19:02;;;;;;;1.30;0.60;;;23.10;75.40;;;;;;5044938;28;20039;-79
2022/07/27 10:21:28;;;;;;;1.80;0.70;;;23.00;74.80;;;;;;5061118;28;20040;-78
2022/07/27 10:24:04;;;;;;;2.45;0.60;;;23.10;74.60;;;;;;5056547;28;20036;-81
2022/07/27 10:26:35;;;;;;;1.15;0.50;;;23.20;74.70;;;;;;5055682;28;20033;-83
2022/07/27 10:29:19;;;;;;;4.45;1.08;;;23.30;74.10;;;;;;5056857;28;20040;-81
2022/07/27 10:31:54;;;;;;;1.67;0.68;;;23.30;73.90;;;;;;5057577;28;20043;-84
2022/07/27 10:34:39;;;;;;;1.42;0.50;;;23.40;73.60;;;;;;5074693;28;20060;-84
2022/07/27 10:37:11;;;;;;;3.40;0.75;;;23.60;72.60;;;;;;5074247;28;20029;-82
2022/07/27 10:39:42;;;;;;;2.40;0.70;;;23.70;72.00;;;;;;5057196;28;20029;-79
2022/07/27 10:42:19;;;;;;;0.68;0.60;;;23.90;71.90;;;;;;5055887;28;20035;-82
2022/07/27 10:45:02;;;;;;;3.00;0.70;;;24.10;70.80;;;;;;5073353;28;20032;-84
2022/07/27 10:47:30;;;;;;;1.65;0.77;;;24.30;70.10;;;;;;5092786;28;20028;-79
2022/07/27 10:50:14;;;;;;;2.13;0.57;;;24.40;69.80;;;;;;5056830;28;20036;-83
2022/07/27 10:52:45;;;;;;;2.30;0.77;;;24.40;69.40;;;;;;5053316;28;20028;-84
2022/07/27 10:55:44;;;;;;;1.52;0.55;;;24.50;69.00;;;;;;5047552;28;20087;-79
2022/07/27 10:58:13;;;;;;;3.42;0.85;;;24.60;68.80;;;;;;5004932;28;20122;-80
2022/07/27 11:00:47;;;;;;;1.10;0.63;;;24.80;68.50;;;;;;5047053;28;20025;-87
2022/07/27 11:03:32;;;;;;;3.58;0.65;;;24.70;68.20;;;;;;5072660;28;20020;-88
2022/07/27 11:06:04;;;;;;;5.05;0.75;;;24.70;69.20;;;;;;5056489;28;20560;-87
2022/07/27 11:08:36;;;;;;;2.85;0.75;;;24.60;69.00;;;;;;5056531;28;20036;-87
2022/07/27 11:11:03;;;;;;;1.70;0.82;;;24.50;69.40;;;;;;5073087;28;20063;-87
2022/07/27 11:13:32;;;;;;;3.22;0.82;;;24.40;69.40;;;;;;5055803;28;20016;-87
2022/07/27 11:16:10;;;;;;;2.65;1.10;;;24.30;69.90;;;;;;5056179;28;20024;-88
2022/07/27 11:18:38;;;;;;;2.47;0.70;;;24.10;70.40;;;;;;5048207;28;20027;-88
2022/07/27 11:21:25;;;;;;;2.95;0.70;;;24.10;70.30;;;;;;5053331;28;20060;-87
2022/07/27 11:23:56;;;;;;;4.22;0.63;;;24.00;71.70;;;;;;5055995;28;20086;-87
2022/07/27 11:26:24;;;;;;;1.83;0.90;;;24.00;71.90;;;;;;5055236;28;20028;-88
2022/07/27 11:28:51;;;;;;;1.13;0.90;;;23.90;71.50;;;;;;5055699;28;20049;-87
2022/07/27 11:31:17;;;;;;;5.78;0.85;;;23.90;71.40;;;;;;5055090;28;20025;-87
2022/07/27 11:33:55;;;;;;;6.75;1.05;;;24.00;71.50;;;;;;5055329;28;20028;-87
2022/07/27 11:36:22;;;;;;;1.90;0.70;;;24.00;71.50;;;;;;5055015;28;20551;-87
2022/07/27 11:38:53;;;;;;;0.90;0.68;;;24.10;71.30;;;;;;5073703;28;20059;-87
2022/07/27 11:41:27;;;;;;;4.18;0.85;;;24.30;71.10;;;;;;5054633;28;20099;-87
2022/07/27 11:43:56;;;;;;;4.80;0.93;;;24.30;70.50;;;;;;5055750;28;20059;-87
2022/07/27 11:46:27;;;;;;;1.90;0.82;;;24.20;70.60;;;;;;5054938;28;20385;-86
2022/07/27 11:48:55;;;;;;;3.42;1.30;;;24.20;70.70;;;;;;5055234;28;20060;-87
2022/07/27 11:51:22;;;;;;;2.53;0.90;;;24.30;70.10;;;;;;5070655;28;20060;-86
2022/07/27 11:53:55;;;;;;;2.20;1.10;;;24.30;69.70;;;;;;5073056;28;20073;-87
2022/07/27 11:56:22;;;;;;;2.42;1.02;;;24.40;69.60;;;;;;5055239;28;20029;-86
2022/07/27 11:59:00;;;;;;;1.73;0.90;;;24.30;69.00;;;;;;5055456;28;20116;-86
2022/07/27 12:01:41;;;;;;;3.88;1.15;;;24.30;68.70;;;;;;5063171;28;20023;-86
2022/07/27 12:04:12;;;;;;;3.73;1.10;;;24.40;68.80;;;;;;5055078;28;20078;-87
2022/07/27 12:06:40;;;;;;;6.40;0.90;;;24.50;68.30;;;;;;5049384;28;20021;-87
2022/07/27 12:09:07;;;;;;;1.65;0.82;;;24.60;68.40;;;;;;5072533;28;20040;-87
2022/07/27 12:11:52;;;;;;;4.93;0.90;;;24.70;68.10;;;;;;5055062;28;20116;-87
2022/07/27 12:14:26;;;;;;;1.85;0.80;;;24.70;67.70;;;;;;5054909;28;20449;-87
2022/07/27 12:17:05;;;;;;;1.85;1.08;;;24.70;68.10;;;;;;5052938;28;20036;-86
2022/07/27 12:19:30;;;;;;;3.13;0.93;;;24.70;67.40;;;;;;5039197;28;20465;-86
2022/07/27 12:21:56;;;;;;;3.03;1.08;;;24.70;67.40;;;;;;5070581;28;20036;-87
2022/07/27 12:24:38;;;;;;;3.33;1.15;;;24.70;66.80;;;;;;5072239;28;20029;-87
2022/07/27 12:27:15;;;;;;;3.92;0.90;;;24.70;67.00;;;;;;5054592;28;20048;-85
2022/07/27 12:30:02;;;;;;;1.80;0.90;;;24.80;67.50;;;;;;5055002;28;20085;-86
2022/07/27 12:32:30;;;;;;;3.90;1.00;;;24.90;66.00;;;;;;5054715;28;20048;-87
2022/07/27 12:34:56;;;;;;;2.42;0.90;;;24.90;66.50;;;;;;5055002;28;20024;-86
2022/07/27 12:37:27;;;;;;;3.60;0.95;;;24.90;65.80;;;;;;5044434;28;20023;-88
2022/07/27 12:39:52;;;;;;;5.25;1.00;;;25.10;65.70;;;;;;5055384;28;20040;-86
2022/07/27 12:42:18;;;;;;;1.55;1.10;;;25.10;64.60;;;;;;5072874;28;20056;-87
2022/07/27 12:44:45;;;;;;;5.63;1.08;;;25.20;64.90;;;;;;5055632;28;20107;-86
2022/07/27 12:50:16;;;;;;;1.80;0.90;;;25.30;63.70;;;;;;5053449;28;20039;-87
2022/07/27 12:52:45;;;;;;;1.77;1.20;;;25.30;62.90;;;;;;5052272;28;20039;-87
2022/07/27 12:55:12;;;;;;;4.13;1.80;;;25.30;63.30;;;;;;5072757;28;20052;-87
2022/07/27 12:57:38;;;;;;;3.80;1.10;;;25.30;63.60;;;;;;5055629;28;20090;-87
2022/07/27 13:00:10;;;;;;;4.57;1.20;;;25.40;63.60;;;;;;5073130;28;20370;-85